createdAt,value
2023-01-28T00:05:36.925Z,43.11
2023-01-28T00:15:42.048Z,43.13
2023-01-28T00:25:47.212Z,43.22
2023-01-28T00:35:52.908Z,43.23
2023-01-28T00:45:58.405Z,43.32
2023-01-28T00:56:03.555Z,43.39
2023-01-28T01:06:08.440Z,43.28
2023-01-28T01:16:13.527Z,43.10
2023-01-28T01:26:19.030Z,43.07
2023-01-28T01:36:24.409Z,43.02
2023-01-28T01:46:29.624Z,42.94
2023-01-28T01:56:34.892Z,42.91
2023-01-28T02:06:40.110Z,42.91
2023-01-28T02:16:45.575Z,42.95
2023-01-28T02:26:51.366Z,42.95
2023-01-28T02:36:56.697Z,42.98
2023-01-28T02:47:02.144Z,43.02
2023-01-28T02:57:07.288Z,43.06
2023-01-28T03:07:12.520Z,43.08
2023-01-28T03:17:17.666Z,43.11
2023-01-28T03:27:22.839Z,43.11
2023-01-28T03:37:27.927Z,43.15
2023-01-28T03:47:33.372Z,43.18
2023-01-28T03:57:38.858Z,43.20
2023-01-28T04:07:44.054Z,43.26
2023-01-28T04:17:49.589Z,43.30
2023-01-28T04:27:54.669Z,43.36
2023-01-28T04:38:00.390Z,43.38
2023-01-28T04:48:05.493Z,43.41
2023-01-28T04:58:11.060Z,43.44
2023-01-28T05:08:16.360Z,43.48
2023-01-28T05:18:21.715Z,43.50
2023-01-28T05:28:26.924Z,43.54
2023-01-28T05:38:32.122Z,43.58
2023-01-28T05:48:37.458Z,43.61
2023-01-28T05:58:42.716Z,43.63
2023-01-28T06:08:48.033Z,43.63
2023-01-28T06:18:53.447Z,43.72
2023-01-28T06:28:58.768Z,43.73
2023-01-28T06:39:03.891Z,43.76
2023-01-28T06:49:09.758Z,43.76
2023-01-28T06:59:15.263Z,43.79
2023-01-28T07:09:20.634Z,43.83
2023-01-28T07:19:25.833Z,43.85
2023-01-28T07:29:31.333Z,43.82
2023-01-28T07:39:36.863Z,43.86
2023-01-28T07:49:42.413Z,43.88
2023-01-28T07:59:48.093Z,43.91
2023-01-28T08:09:53.386Z,43.92
2023-01-28T08:19:58.655Z,43.92
2023-01-28T08:30:04.162Z,43.97
2023-01-28T08:40:09.521Z,43.96
2023-01-28T08:50:15.132Z,43.92
2023-01-28T09:00:20.640Z,43.93
2023-01-28T09:10:26.160Z,43.94
2023-01-28T09:20:31.377Z,43.95
2023-01-28T09:30:38.014Z,43.99
2023-01-28T09:40:43.466Z,44.00
2023-01-28T09:50:48.743Z,43.97
2023-01-28T10:00:54.237Z,43.98
2023-01-28T10:10:59.748Z,43.99
2023-01-28T10:21:04.729Z,44.00
2023-01-28T10:31:10.004Z,44.20
2023-01-28T10:41:15.422Z,44.23
2023-01-28T10:51:21.081Z,44.15
2023-01-28T11:01:26.321Z,44.31
2023-01-28T11:11:31.604Z,44.48
2023-01-28T11:21:37.183Z,44.58
2023-01-28T11:31:42.605Z,44.54
2023-01-28T11:41:47.490Z,44.59
2023-01-28T11:51:52.911Z,44.77
2023-01-28T12:01:58.253Z,44.67
2023-01-28T12:12:05.002Z,44.82
2023-01-28T12:22:10.407Z,44.94
2023-01-28T12:32:15.680Z,44.65
2023-01-28T12:42:21.712Z,42.94
2023-01-28T12:52:26.812Z,43.39
2023-01-28T13:02:32.427Z,43.85
2023-01-28T13:12:37.746Z,44.12
2023-01-28T13:22:42.974Z,44.20
2023-01-28T13:32:48.343Z,44.33
2023-01-28T13:42:53.565Z,44.33
2023-01-28T13:52:59.134Z,44.38
2023-01-28T14:03:04.471Z,44.45
2023-01-28T14:13:09.900Z,44.63
2023-01-28T14:23:14.794Z,44.67
2023-01-28T14:33:20.058Z,44.58
2023-01-28T14:43:25.405Z,44.62
2023-01-28T14:53:30.625Z,44.59
2023-01-28T15:03:36.180Z,44.68
2023-01-28T15:13:41.234Z,44.83
2023-01-28T15:23:46.334Z,45.03
2023-01-28T15:33:52.021Z,45.19
2023-01-28T15:43:57.114Z,45.19
2023-01-28T15:54:02.085Z,45.53
2023-01-28T16:04:07.259Z,45.61
2023-01-28T16:14:12.333Z,45.48
2023-01-28T16:24:17.976Z,45.54
2023-01-28T16:34:23.106Z,46.60
2023-01-28T16:44:28.612Z,47.27
2023-01-28T16:54:33.426Z,47.43
2023-01-28T17:04:38.894Z,46.90
2023-01-28T17:14:44.131Z,46.78
2023-01-28T17:24:49.374Z,46.19
2023-01-28T17:34:54.911Z,46.15
2023-01-28T17:45:00.488Z,46.24
2023-01-28T17:55:06.062Z,46.05
2023-01-28T18:05:11.780Z,46.16
2023-01-28T18:15:17.480Z,46.19
2023-01-28T18:25:23.295Z,46.03
2023-01-28T18:35:28.954Z,46.37
2023-01-28T18:45:34.820Z,47.86
2023-01-28T18:55:40.370Z,47.13
2023-01-28T19:05:45.773Z,46.98
2023-01-28T19:15:51.091Z,48.05
2023-01-28T19:25:56.603Z,46.77
2023-01-28T19:36:03.475Z,47.61
2023-01-28T19:46:09.310Z,47.48
2023-01-28T19:56:14.608Z,47.89
2023-01-28T20:06:21.517Z,46.87
2023-01-28T20:16:27.095Z,46.71
2023-01-28T20:26:32.347Z,47.08
2023-01-28T20:36:38.151Z,47.04
2023-01-28T20:46:43.825Z,47.75
2023-01-28T20:56:49.361Z,46.58
2023-01-28T21:06:54.299Z,46.26
2023-01-28T21:16:59.872Z,46.16
2023-01-28T21:27:05.160Z,46.11
2023-01-28T21:37:10.299Z,46.62
2023-01-28T21:47:15.691Z,46.01
2023-01-28T21:57:21.212Z,46.24
2023-01-28T22:07:26.522Z,45.86
2023-01-28T22:17:31.649Z,46.39
2023-01-28T22:27:36.862Z,45.91
2023-01-28T22:37:41.994Z,45.97
2023-01-28T22:47:47.675Z,45.72
2023-01-28T22:57:53.206Z,45.55
2023-01-28T23:07:58.420Z,45.82
2023-01-28T23:18:05.446Z,45.33
2023-01-28T23:28:10.764Z,45.48
2023-01-28T23:38:15.715Z,45.50
2023-01-28T23:48:20.945Z,46.75
2023-01-28T23:58:42.174Z,45.89
